createdAt,value
2022-10-31T00:01:19.813Z,10.90
2022-10-31T00:03:48.036Z,11.30
2022-10-31T00:06:18.700Z,11.10
2022-10-31T00:08:54.508Z,11.00
2022-10-31T00:11:46.119Z,11.40
2022-10-31T00:14:20.847Z,11.10
2022-10-31T00:16:48.087Z,11.00
2022-10-31T00:19:19.713Z,11.10
2022-10-31T00:22:02.858Z,11.20
2022-10-31T00:24:38.950Z,10.10
2022-10-31T00:27:06.025Z,10.30
2022-10-31T00:29:33.418Z,10.30
2022-10-31T00:32:00.640Z,11.20
2022-10-31T00:34:27.637Z,10.50
2022-10-31T00:36:59.015Z,10.10
2022-10-31T00:39:30.603Z,9.30
2022-10-31T00:41:59.539Z,9.40
2022-10-31T00:44:26.518Z,10.00
2022-10-31T00:46:53.383Z,10.20
2022-10-31T00:49:24.165Z,10.40
2022-10-31T00:51:55.819Z,10.50
2022-10-31T00:54:22.857Z,10.70
2022-10-31T00:56:52.853Z,10.00
2022-10-31T00:59:19.885Z,11.30
2022-10-31T01:01:46.990Z,10.70
2022-10-31T01:04:14.352Z,10.40
2022-10-31T01:06:41.599Z,10.30
2022-10-31T01:09:08.564Z,10.60
2022-10-31T01:11:35.541Z,11.10
2022-10-31T01:14:02.757Z,11.10
2022-10-31T01:16:32.455Z,10.90
2022-10-31T01:18:59.316Z,10.40
2022-10-31T01:21:28.902Z,10.20
2022-10-31T01:23:56.882Z,10.70
2022-10-31T01:26:28.853Z,10.30
2022-10-31T01:29:01.402Z,10.80
2022-10-31T01:31:31.615Z,10.50
2022-10-31T01:33:59.151Z,10.70
2022-10-31T01:36:33.058Z,10.80
2022-10-31T01:39:04.337Z,10.90
2022-10-31T01:41:38.563Z,11.80
2022-10-31T01:44:15.698Z,11.10
2022-10-31T01:46:45.745Z,10.70
2022-10-31T01:51:48.483Z,11.20
2022-10-31T01:54:21.043Z,10.80
2022-10-31T01:56:53.705Z,10.90
2022-10-31T01:59:22.529Z,10.00
2022-10-31T02:01:52.424Z,11.20
2022-10-31T02:04:22.744Z,10.50
2022-10-31T02:06:54.986Z,11.10
2022-10-31T02:09:24.410Z,10.80
2022-10-31T02:11:58.028Z,10.80
2022-10-31T02:14:29.832Z,10.70
2022-10-31T02:16:57.860Z,10.60
2022-10-31T02:19:51.056Z,10.90
2022-10-31T02:22:28.453Z,10.90
2022-10-31T02:25:23.300Z,11.10
2022-10-31T02:28:11.555Z,10.80
2022-10-31T02:31:05.597Z,11.20
2022-10-31T02:33:44.909Z,11.10
2022-10-31T02:36:14.759Z,11.80
2022-10-31T02:38:56.626Z,11.20
2022-10-31T02:41:37.204Z,11.40
2022-10-31T02:44:16.025Z,11.90
2022-10-31T02:46:58.404Z,11.70
2022-10-31T02:49:29.009Z,11.80
2022-10-31T02:51:55.776Z,11.50
2022-10-31T02:54:28.059Z,11.30
2022-10-31T02:57:07.465Z,11.60
2022-10-31T02:59:39.786Z,12.10
2022-10-31T03:02:20.917Z,11.50
2022-10-31T03:05:08.332Z,11.20
2022-10-31T03:08:00.506Z,11.90
2022-10-31T03:11:04.554Z,11.40
2022-10-31T03:13:33.916Z,11.90
2022-10-31T03:16:12.321Z,11.20
2022-10-31T03:18:50.683Z,11.70
2022-10-31T03:21:26.746Z,11.40
2022-10-31T03:23:55.162Z,11.70
2022-10-31T03:26:23.905Z,12.30
2022-10-31T03:28:55.195Z,12.10
2022-10-31T03:31:28.356Z,11.10
2022-10-31T03:33:59.223Z,11.80
2022-10-31T03:36:27.676Z,11.90
2022-10-31T03:38:57.463Z,11.40
2022-10-31T03:43:57.867Z,12.30
2022-10-31T03:46:24.980Z,12.00
2022-10-31T03:48:52.161Z,12.50
2022-10-31T03:51:33.909Z,11.70
2022-10-31T03:54:14.268Z,12.20
2022-10-31T03:56:52.817Z,11.20
2022-10-31T03:59:45.036Z,11.50
2022-10-31T04:02:17.288Z,11.80
2022-10-31T04:04:46.062Z,11.50
2022-10-31T04:07:14.012Z,11.70
2022-10-31T04:09:44.606Z,11.40
2022-10-31T04:12:17.829Z,11.20
2022-10-31T04:14:48.327Z,12.40
2022-10-31T04:17:19.060Z,12.20
2022-10-31T04:19:45.901Z,11.60
2022-10-31T04:22:12.820Z,12.30
2022-10-31T04:24:41.159Z,11.70
2022-10-31T04:27:07.976Z,11.80
2022-10-31T04:29:35.388Z,11.60
2022-10-31T04:32:02.247Z,10.60
2022-10-31T04:34:29.031Z,12.10
2022-10-31T04:36:55.965Z,11.50
2022-10-31T04:39:26.576Z,11.60
2022-10-31T04:41:53.651Z,12.00
2022-10-31T04:44:20.458Z,11.60
2022-10-31T04:46:47.830Z,11.50
2022-10-31T04:49:14.687Z,11.20
2022-10-31T04:51:41.509Z,11.00
2022-10-31T04:54:08.458Z,11.40
2022-10-31T04:56:35.216Z,10.70
2022-10-31T04:59:01.987Z,10.40
2022-10-31T05:01:29.069Z,10.70
2022-10-31T05:03:55.995Z,10.30
2022-10-31T05:06:22.761Z,10.40
2022-10-31T05:08:49.955Z,10.30
2022-10-31T05:11:16.741Z,9.30
2022-10-31T05:13:43.495Z,9.70
2022-10-31T05:16:10.391Z,10.00
2022-10-31T05:18:37.204Z,10.40
2022-10-31T05:21:04.202Z,10.00
2022-10-31T05:23:31.161Z,9.90
2022-10-31T05:25:57.926Z,10.10
2022-10-31T05:28:24.739Z,9.80
2022-10-31T05:30:52.052Z,9.50
2022-10-31T05:33:18.854Z,9.60
2022-10-31T05:35:45.604Z,9.90
2022-10-31T05:38:13.038Z,9.50
2022-10-31T05:40:39.851Z,9.30
2022-10-31T05:43:06.646Z,10.10
2022-10-31T05:45:33.594Z,10.30
2022-10-31T05:48:02.290Z,10.90
2022-10-31T05:50:31.287Z,9.50
2022-10-31T05:53:03.931Z,10.00
2022-10-31T05:55:31.871Z,10.20
2022-10-31T05:57:59.250Z,10.10
2022-10-31T06:00:27.613Z,10.30
2022-10-31T06:03:02.661Z,11.00
2022-10-31T06:05:30.239Z,10.30
2022-10-31T06:07:58.104Z,10.30
2022-10-31T06:10:26.615Z,10.10
2022-10-31T06:12:53.547Z,9.70
2022-10-31T06:15:24.056Z,10.00
2022-10-31T06:18:05.629Z,9.70
2022-10-31T06:20:33.591Z,8.90
2022-10-31T06:23:01.057Z,8.80
2022-10-31T06:25:28.733Z,8.90
2022-10-31T06:27:56.889Z,8.70
2022-10-31T06:30:23.722Z,8.80
2022-10-31T06:32:50.573Z,8.90
2022-10-31T06:35:18.001Z,9.10
2022-10-31T06:37:51.945Z,9.20
2022-10-31T06:40:18.844Z,9.10
2022-10-31T06:42:45.661Z,9.00
2022-10-31T06:45:12.559Z,9.00
2022-10-31T06:47:50.972Z,8.90
2022-10-31T06:50:26.703Z,8.20
2022-10-31T06:52:58.504Z,8.60
2022-10-31T06:55:26.805Z,8.60
2022-10-31T06:57:57.662Z,8.10
2022-10-31T07:00:30.238Z,8.10
2022-10-31T07:02:58.077Z,7.50
2022-10-31T07:05:25.637Z,8.40
2022-10-31T07:07:54.323Z,8.00
2022-10-31T07:10:22.089Z,7.40
2022-10-31T07:12:48.843Z,7.50
2022-10-31T07:15:15.729Z,7.40
2022-10-31T07:17:42.529Z,8.20
2022-10-31T07:20:09.774Z,8.10
2022-10-31T07:22:38.161Z,8.00
2022-10-31T07:25:05.442Z,8.40
2022-10-31T07:27:42.681Z,7.80
2022-10-31T07:30:11.493Z,8.30
2022-10-31T07:32:49.787Z,8.10
2022-10-31T07:35:19.269Z,8.20
2022-10-31T07:37:46.337Z,8.50
2022-10-31T07:40:13.635Z,8.20
2022-10-31T07:42:45.907Z,8.40
2022-10-31T07:45:15.504Z,7.90
2022-10-31T07:47:44.543Z,7.90
2022-10-31T07:50:15.258Z,7.30
2022-10-31T07:52:42.470Z,7.70
2022-10-31T07:55:10.359Z,7.80
2022-10-31T07:57:37.770Z,7.20
2022-10-31T08:00:09.835Z,8.10
2022-10-31T08:02:36.697Z,7.90
2022-10-31T08:05:03.626Z,7.70
2022-10-31T08:10:07.789Z,7.50
2022-10-31T08:12:34.663Z,7.40
2022-10-31T08:15:02.446Z,7.90
2022-10-31T08:17:30.137Z,8.00
2022-10-31T08:19:57.003Z,7.50
2022-10-31T08:22:23.890Z,7.90
2022-10-31T08:24:50.719Z,8.00
2022-10-31T08:27:17.631Z,7.20
2022-10-31T08:29:44.376Z,7.70
2022-10-31T08:32:11.404Z,8.50
2022-10-31T08:34:38.307Z,7.60
2022-10-31T08:37:05.224Z,8.40
2022-10-31T08:39:32.104Z,8.30
2022-10-31T08:41:59.086Z,8.30
2022-10-31T08:44:25.917Z,8.20
2022-10-31T08:46:52.808Z,7.70
2022-10-31T08:49:19.705Z,7.90
2022-10-31T08:51:49.535Z,8.20
2022-10-31T08:56:43.056Z,8.30
2022-10-31T08:59:09.835Z,9.40
2022-10-31T09:01:36.860Z,9.90
2022-10-31T09:04:03.858Z,10.10
2022-10-31T09:06:30.782Z,10.30
2022-10-31T09:08:58.317Z,10.90
2022-10-31T09:11:25.166Z,9.00
2022-10-31T09:13:53.183Z,9.30
2022-10-31T09:16:20.033Z,9.30
2022-10-31T09:18:46.990Z,8.80
2022-10-31T09:21:13.743Z,8.90
2022-10-31T09:23:40.598Z,8.90
2022-10-31T09:26:07.626Z,9.30
2022-10-31T09:28:34.625Z,8.50
2022-10-31T09:31:01.546Z,10.50
2022-10-31T09:33:28.826Z,9.30
2022-10-31T09:35:55.637Z,11.20
2022-10-31T09:38:23.819Z,12.90
2022-10-31T09:41:08.716Z,15.80
2022-10-31T09:44:00.178Z,16.30
2022-10-31T09:46:45.226Z,21.20
2022-10-31T09:49:14.972Z,24.90
2022-10-31T09:51:50.466Z,24.40
2022-10-31T09:54:26.088Z,24.70
2022-10-31T09:56:53.044Z,23.70
2022-10-31T09:59:28.705Z,24.00
2022-10-31T10:01:57.459Z,24.00
2022-10-31T10:04:37.651Z,25.60
2022-10-31T10:07:31.729Z,27.20
2022-10-31T10:10:24.008Z,25.90
2022-10-31T10:13:02.360Z,26.10
2022-10-31T10:15:40.535Z,26.00
2022-10-31T10:18:21.532Z,25.40
2022-10-31T10:21:05.872Z,24.00
2022-10-31T10:23:35.635Z,20.90
2022-10-31T10:28:42.191Z,18.70
2022-10-31T10:31:14.056Z,18.50
2022-10-31T10:33:50.998Z,16.70
2022-10-31T10:36:28.635Z,17.00
2022-10-31T10:39:03.738Z,16.70
2022-10-31T10:41:34.569Z,17.40
2022-10-31T10:44:01.956Z,17.50
2022-10-31T10:47:15.054Z,16.60
2022-10-31T10:50:03.426Z,18.10
2022-10-31T10:52:50.574Z,15.70
2022-10-31T10:55:31.145Z,15.50
2022-10-31T10:58:04.226Z,16.20
2022-10-31T11:00:39.287Z,15.90
2022-10-31T11:03:07.040Z,15.30
2022-10-31T11:05:42.892Z,15.90
2022-10-31T11:08:09.936Z,14.70
2022-10-31T11:10:37.191Z,14.60
2022-10-31T11:13:12.916Z,13.70
2022-10-31T11:16:00.104Z,15.00
2022-10-31T11:18:30.692Z,14.30
2022-10-31T11:21:00.650Z,15.10
2022-10-31T11:23:29.196Z,14.40
2022-10-31T11:25:59.120Z,16.40
2022-10-31T11:28:29.721Z,16.80
2022-10-31T11:31:01.328Z,16.70
2022-10-31T11:33:48.058Z,16.50
2022-10-31T11:36:17.228Z,16.30
2022-10-31T11:38:45.966Z,16.00
2022-10-31T11:41:19.490Z,16.30
2022-10-31T11:43:56.316Z,17.20
2022-10-31T11:46:37.920Z,16.60
2022-10-31T11:49:06.847Z,15.50
2022-10-31T11:51:35.800Z,15.90
2022-10-31T11:54:04.819Z,15.30
2022-10-31T11:56:42.701Z,15.00
2022-10-31T11:59:39.472Z,14.10
2022-10-31T12:02:19.765Z,15.20
2022-10-31T12:05:08.750Z,13.90
2022-10-31T12:07:35.731Z,15.60
2022-10-31T12:10:14.075Z,14.30
2022-10-31T12:12:42.064Z,16.10
2022-10-31T12:15:17.808Z,15.70
2022-10-31T12:17:50.142Z,15.60
2022-10-31T12:20:47.187Z,14.80
2022-10-31T12:23:35.582Z,14.10
2022-10-31T12:26:31.266Z,13.50
2022-10-31T12:29:26.871Z,13.30
2022-10-31T12:32:02.398Z,14.10
2022-10-31T12:35:00.150Z,15.00
2022-10-31T12:37:41.943Z,13.90
2022-10-31T12:40:47.377Z,14.30
2022-10-31T12:43:45.203Z,13.80
2022-10-31T12:46:35.516Z,13.70
2022-10-31T12:49:11.651Z,14.90
2022-10-31T12:51:50.431Z,14.30
2022-10-31T12:54:35.305Z,15.80
2022-10-31T12:57:08.020Z,14.90
2022-10-31T12:59:41.340Z,15.80
2022-10-31T13:02:17.293Z,13.40
2022-10-31T13:04:58.898Z,13.20
2022-10-31T13:07:34.949Z,14.20
2022-10-31T13:10:13.462Z,13.80
2022-10-31T13:12:42.886Z,13.20
2022-10-31T13:15:21.425Z,12.40
2022-10-31T13:18:00.108Z,12.40
2022-10-31T13:20:35.370Z,13.50
2022-10-31T13:23:30.099Z,13.80
2022-10-31T13:26:12.743Z,12.80
2022-10-31T13:28:56.676Z,12.30
2022-10-31T13:31:23.727Z,13.80
2022-10-31T13:33:55.451Z,12.60
2022-10-31T13:36:34.687Z,11.90
2022-10-31T13:39:33.660Z,9.90
2022-10-31T13:42:22.214Z,11.50
2022-10-31T13:44:49.240Z,9.10
2022-10-31T13:47:30.033Z,8.90
2022-10-31T13:50:19.344Z,10.00
2022-10-31T13:52:47.007Z,8.90
2022-10-31T13:55:41.187Z,8.30
2022-10-31T13:58:28.972Z,8.20
2022-10-31T14:01:15.208Z,9.80
2022-10-31T14:06:39.394Z,8.80
2022-10-31T14:09:17.268Z,14.20
2022-10-31T14:11:47.960Z,13.80
2022-10-31T14:14:15.980Z,12.80
2022-10-31T14:16:45.985Z,11.80
2022-10-31T14:19:19.204Z,13.30
2022-10-31T14:21:50.571Z,13.90
2022-10-31T14:24:23.163Z,11.20
2022-10-31T14:26:55.781Z,19.00
2022-10-31T14:29:28.646Z,16.90
2022-10-31T14:32:14.932Z,12.30
2022-10-31T14:34:50.808Z,12.40
2022-10-31T14:37:27.774Z,11.00
2022-10-31T14:40:22.465Z,12.10
2022-10-31T14:43:10.980Z,13.70
2022-10-31T14:45:43.433Z,12.10
2022-10-31T14:48:27.866Z,11.20
2022-10-31T14:51:00.340Z,11.10
2022-10-31T14:53:55.294Z,10.80
2022-10-31T14:56:25.204Z,9.20
2022-10-31T14:58:54.950Z,9.20
2022-10-31T15:04:33.072Z,9.00
2022-10-31T15:07:14.268Z,9.40
2022-10-31T15:09:43.977Z,9.00
2022-10-31T15:12:30.151Z,8.30
2022-10-31T15:14:58.948Z,7.90
2022-10-31T15:17:26.755Z,8.20
2022-10-31T15:19:54.111Z,8.70
2022-10-31T15:22:24.508Z,9.00
2022-10-31T15:24:56.635Z,8.70
2022-10-31T15:27:27.348Z,8.80
2022-10-31T15:29:57.151Z,8.60
2022-10-31T15:32:25.503Z,9.50
2022-10-31T15:34:54.127Z,10.20
2022-10-31T15:37:25.155Z,9.20
2022-10-31T15:39:53.227Z,8.60
2022-10-31T15:42:23.173Z,10.10
2022-10-31T15:47:43.405Z,8.70
2022-10-31T15:50:41.663Z,9.10
2022-10-31T15:53:29.045Z,11.50
2022-10-31T15:56:03.175Z,8.90
2022-10-31T15:58:43.339Z,13.50
2022-10-31T16:01:27.715Z,11.80
2022-10-31T16:04:10.938Z,10.10
2022-10-31T16:06:50.676Z,9.00
2022-10-31T16:11:49.832Z,8.80
2022-10-31T16:14:25.300Z,8.20
2022-10-31T16:16:55.095Z,13.50
2022-10-31T16:19:34.747Z,11.80
2022-10-31T16:24:51.351Z,8.80
2022-10-31T16:27:29.078Z,8.00
2022-10-31T16:29:58.223Z,7.90
2022-10-31T16:32:28.062Z,7.70
2022-10-31T16:37:25.654Z,9.10
2022-10-31T16:39:52.698Z,10.30
2022-10-31T16:42:19.988Z,8.90
2022-10-31T16:44:48.818Z,8.10
2022-10-31T16:47:17.999Z,7.30
2022-10-31T16:49:49.248Z,6.80
2022-10-31T16:52:19.039Z,6.50
2022-10-31T16:57:20.944Z,7.10
2022-10-31T16:59:52.052Z,6.50
2022-10-31T17:02:19.006Z,6.30
2022-10-31T17:04:52.217Z,5.70
2022-10-31T17:07:24.517Z,5.60
2022-10-31T17:09:51.535Z,6.20
2022-10-31T17:12:24.033Z,6.60
2022-10-31T17:14:52.313Z,5.40
2022-10-31T17:17:19.150Z,5.50
2022-10-31T17:19:46.086Z,5.20
2022-10-31T17:22:14.818Z,4.80
2022-10-31T17:24:41.855Z,4.60
2022-10-31T17:27:08.838Z,5.10
2022-10-31T17:29:35.790Z,4.90
2022-10-31T17:32:03.789Z,5.00
2022-10-31T17:34:30.743Z,6.00
2022-10-31T17:36:57.574Z,9.40
2022-10-31T17:39:25.599Z,14.20
2022-10-31T17:41:52.428Z,12.70
2022-10-31T17:44:19.578Z,8.80
2022-10-31T17:46:46.419Z,14.70
2022-10-31T17:49:13.586Z,14.90
2022-10-31T17:51:40.485Z,9.80
2022-10-31T17:54:08.634Z,7.20
2022-10-31T17:56:35.511Z,5.20
2022-10-31T17:59:02.363Z,5.40
2022-10-31T18:01:29.482Z,5.30
2022-10-31T18:03:57.088Z,4.90
2022-10-31T18:06:23.935Z,7.00
2022-10-31T18:08:50.801Z,6.00
2022-10-31T18:11:20.912Z,5.90
2022-10-31T18:13:48.059Z,5.90
2022-10-31T18:16:18.617Z,5.80
2022-10-31T18:18:53.386Z,5.70
2022-10-31T18:21:20.725Z,5.80
2022-10-31T18:23:47.734Z,6.80
2022-10-31T18:26:14.702Z,6.90
2022-10-31T18:28:41.614Z,6.80
2022-10-31T18:31:11.746Z,6.20
2022-10-31T18:33:46.348Z,6.70
2022-10-31T18:36:13.382Z,6.20
2022-10-31T18:38:44.414Z,6.00
2022-10-31T18:41:12.924Z,6.80
2022-10-31T18:43:40.465Z,6.20
2022-10-31T18:46:13.545Z,5.80
2022-10-31T18:48:42.254Z,6.20
2022-10-31T18:51:11.033Z,6.70
2022-10-31T18:53:37.896Z,5.40
2022-10-31T18:56:09.983Z,6.20
2022-10-31T18:58:37.372Z,6.30
2022-10-31T19:01:09.323Z,6.00
2022-10-31T19:03:37.294Z,6.80
2022-10-31T19:06:04.692Z,8.00
2022-10-31T19:08:31.572Z,8.40
2022-10-31T19:11:06.134Z,8.00
2022-10-31T19:13:34.777Z,9.10
2022-10-31T19:16:12.387Z,10.90
2022-10-31T19:18:40.344Z,8.30
2022-10-31T19:21:09.928Z,7.50
2022-10-31T19:23:37.551Z,6.30
2022-10-31T19:26:05.285Z,6.50
2022-10-31T19:28:33.766Z,9.70
2022-10-31T19:31:00.884Z,8.10
2022-10-31T19:33:34.923Z,8.60
2022-10-31T19:36:11.085Z,7.60
2022-10-31T19:38:40.340Z,6.20
2022-10-31T19:41:10.510Z,6.20
2022-10-31T19:43:40.619Z,5.70
2022-10-31T19:46:17.356Z,5.70
2022-10-31T19:48:54.823Z,5.70
2022-10-31T19:51:21.788Z,5.10
2022-10-31T19:53:51.927Z,5.70
2022-10-31T19:56:21.504Z,5.40
2022-10-31T19:58:48.616Z,5.00
2022-10-31T20:01:17.889Z,5.00
2022-10-31T20:03:46.095Z,4.80
2022-10-31T20:06:22.462Z,6.50
2022-10-31T20:08:49.532Z,5.10
2022-10-31T20:11:16.702Z,4.50
2022-10-31T20:13:43.636Z,4.40
2022-10-31T20:16:12.092Z,5.20
2022-10-31T20:18:39.537Z,6.20
2022-10-31T20:21:12.551Z,4.90
2022-10-31T20:23:39.902Z,4.30
2022-10-31T20:26:10.054Z,3.90
2022-10-31T20:29:03.784Z,4.00
2022-10-31T20:35:22.354Z,5.30
2022-10-31T20:38:08.391Z,5.60
2022-10-31T20:43:25.149Z,7.90
2022-10-31T20:46:50.241Z,6.80
2022-10-31T20:49:22.137Z,6.60
2022-10-31T20:51:49.637Z,5.70
2022-10-31T20:57:34.710Z,15.00
2022-10-31T21:00:02.035Z,22.20
2022-10-31T21:02:30.202Z,13.70
2022-10-31T21:04:57.943Z,18.30
2022-10-31T21:07:25.016Z,22.10
2022-10-31T21:10:03.882Z,17.60
2022-10-31T21:12:32.448Z,13.80
2022-10-31T21:15:00.706Z,11.40
2022-10-31T21:17:28.200Z,14.70
2022-10-31T21:19:55.156Z,14.40
2022-10-31T21:22:22.146Z,13.10
2022-10-31T21:24:54.373Z,15.20
2022-10-31T21:27:23.461Z,19.60
2022-10-31T21:29:50.384Z,15.60
2022-10-31T21:32:17.594Z,11.30
2022-10-31T21:34:55.628Z,11.00
2022-10-31T21:37:22.581Z,12.30
2022-10-31T21:39:50.960Z,21.40
2022-10-31T21:42:22.489Z,19.80
2022-10-31T21:44:50.038Z,19.00
2022-10-31T21:47:17.446Z,15.70
2022-10-31T21:49:44.478Z,13.70
2022-10-31T21:52:11.761Z,9.20
2022-10-31T21:54:38.736Z,8.40
2022-10-31T21:57:05.604Z,7.90
2022-10-31T21:59:32.578Z,7.70
2022-10-31T22:02:00.105Z,7.20
2022-10-31T22:04:28.023Z,7.50
2022-10-31T22:06:54.920Z,7.30
2022-10-31T22:09:23.184Z,8.90
2022-10-31T22:11:50.125Z,9.60
2022-10-31T22:14:17.193Z,8.40
2022-10-31T22:16:44.536Z,7.80
2022-10-31T22:19:13.383Z,8.60
2022-10-31T22:21:43.907Z,7.80
2022-10-31T22:24:10.941Z,7.70
2022-10-31T22:26:39.123Z,7.20
2022-10-31T22:29:11.131Z,7.20
2022-10-31T22:31:41.071Z,6.90
2022-10-31T22:34:08.793Z,6.90
2022-10-31T22:36:37.253Z,6.60
2022-10-31T22:39:05.428Z,6.00
2022-10-31T22:41:34.446Z,6.20
2022-10-31T22:44:02.479Z,5.70
2022-10-31T22:46:33.313Z,5.40
2022-10-31T22:49:03.837Z,5.90
2022-10-31T22:51:33.813Z,6.10
2022-10-31T22:54:01.180Z,6.10
2022-10-31T22:56:31.202Z,5.60
2022-10-31T22:58:59.256Z,5.60
2022-10-31T23:01:29.242Z,6.00
2022-10-31T23:03:56.744Z,6.00
2022-10-31T23:06:26.000Z,6.90
2022-10-31T23:26:48.338Z,6.00
2022-10-31T23:29:15.590Z,5.20
2022-10-31T23:31:42.846Z,5.30
2022-10-31T23:34:10.099Z,5.00
2022-10-31T23:36:44.463Z,4.50
2022-10-31T23:39:11.670Z,4.80
2022-10-31T23:41:38.682Z,4.90
2022-10-31T23:44:05.969Z,5.50
2022-10-31T23:46:57.762Z,5.30
2022-10-31T23:49:25.345Z,5.10
2022-10-31T23:51:52.553Z,5.30
2022-10-31T23:54:19.670Z,4.80
2022-10-31T23:56:46.826Z,6.10
2022-10-31T23:59:14.083Z,5.30
